Airfield :
LOGIN :

Register | Disclaimer

   EN    FR    IT 

 










Legend :    VFR   Marginal VFR   IFR   Intensive IFR   Very Intensive IFR
Visi :
Ceiling :
>= 8 km
>= 3000ft
5 to 8 km
1000 to 3000 ft
1500m to 5 km
500 to 1000 ft
800 to 1500m
200 to 500 ft
< 800m
< 200 ft
Symbols :   Thunderstorms  Fog  Heavy snow  Heavy precipitations  Wind > 20 kt
SIGMETs :     Misc.  Thunderstorms  Icing  Turbulence  Mountain Waves  Volcanic Ashes






- Airport Elevation : 194 ft


EBCV - Chièvres

CURRENT METAR :
  • 020813Z AUTO 26012KT 9999 BKN017/// 17/13 Q1011 WHT

EXPIRED METARs :
  • 020755Z AUTO 24011KT 9999 BKN013/// 17/14 Q1011 GRN
  • 020725Z AUTO 26009KT 9999 SCT011/// BKN087/// 17/14 Q1011 GRN
  • 020723Z AUTO 26009KT 9999 SCT011/// BKN087/// 17/14 Q1011 GRN
  • 020714Z AUTO 25007KT 9999 FEW010/// BKN087/// 16/14 Q1011 BLU
  • 020655Z AUTO 25007KT 9999 SCT010/// BKN087/// 16/14 Q1011 GRN
  • 020625Z AUTO 23007KT 9999 BKN011/// BKN089/// 16/14 Q1011 GRN
  • 020619Z AUTO 22006KT 9999 SCT012/// BKN089/// 16/14 Q1011 GRN
  • 020555Z AUTO 23006KT 9999 SCT017/// BKN082/// 15/14 Q1010 WHT
  • 020525Z AUTO 21004KT 9999 OVC077/// 15/14 Q1010 BLU

TAF TAF EBCV
Valid from the 02 at 07:00 until the 02 at 16:00 UTC


020541Z 0207/0216 25012G22KT 9999 SCT015 BKN030
PROB30
TEMPO 0207/0208 SCT010
PROB40
TEMPO 0212/0216 6000 -SHRA SCT020



MET'MAP, your aeronautical weather chart ! - Copyright ORBIFLY December 2007 - Disclaimer

ORBIFLY MET'MAP TEAM :

Programming & Development : Alexandra Zaïnal
Concept & original design : Baudouin d'Aumeries
Assistance for programming : Marc-Olivier Méhu
Technical & hardware support : Manuel Goepfert

Contact : metmap@orbifly.com




SOURCES & CREDITS :

   NOAA